sensor_id;sensor_type;location;lat;lon;timestamp;pressure;altitude;pressure_sealevel;temperature;humidity
14966;BME280;7577;45.226;5.798;2022-07-29T00:01:44;97782.76;;;23.92;45.79
14966;BME280;7577;45.226;5.798;2022-07-29T00:04:16;97783.97;;;23.94;46.14
14966;BME280;7577;45.226;5.798;2022-07-29T00:06:46;97784.93;;;23.92;46.29
14966;BME280;7577;45.226;5.798;2022-07-29T00:09:16;97777.58;;;24.10;45.66
14966;BME280;7577;45.226;5.798;2022-07-29T00:11:47;97775.69;;;24.01;45.88
14966;BME280;7577;45.226;5.798;2022-07-29T00:17:09;97785.97;;;23.97;46.00
14966;BME280;7577;45.226;5.798;2022-07-29T00:19:43;97788.19;;;23.85;46.39
14966;BME280;7577;45.226;5.798;2022-07-29T00:22:18;97785.77;;;23.96;46.65
14966;BME280;7577;45.226;5.798;2022-07-29T00:24:48;97780.67;;;24.02;46.36
14966;BME280;7577;45.226;5.798;2022-07-29T00:27:22;97775.41;;;24.10;45.41
14966;BME280;7577;45.226;5.798;2022-07-29T00:29:57;97778.85;;;24.00;46.50
14966;BME280;7577;45.226;5.798;2022-07-29T00:35:10;97780.50;;;24.04;45.96
14966;BME280;7577;45.226;5.798;2022-07-29T00:37:58;97778.73;;;24.06;46.06
14966;BME280;7577;45.226;5.798;2022-07-29T00:40:28;97782.53;;;23.78;46.90
14966;BME280;7577;45.226;5.798;2022-07-29T00:43:00;97785.23;;;23.54;47.18
14966;BME280;7577;45.226;5.798;2022-07-29T00:45:33;97790.41;;;23.43;47.60
14966;BME280;7577;45.226;5.798;2022-07-29T00:48:05;97784.95;;;23.50;47.31
14966;BME280;7577;45.226;5.798;2022-07-29T00:50:38;97782.56;;;23.65;47.36
14966;BME280;7577;45.226;5.798;2022-07-29T00:55:50;97781.06;;;23.87;46.70
14966;BME280;7577;45.226;5.798;2022-07-29T00:58:22;97783.33;;;23.91;46.74
14966;BME280;7577;45.226;5.798;2022-07-29T01:00:52;97784.86;;;23.89;46.74
14966;BME280;7577;45.226;5.798;2022-07-29T01:03:23;97780.17;;;23.93;46.26
14966;BME280;7577;45.226;5.798;2022-07-29T01:09:11;97770.80;;;24.08;46.53
14966;BME280;7577;45.226;5.798;2022-07-29T01:11:46;97768.91;;;23.99;46.46
14966;BME280;7577;45.226;5.798;2022-07-29T01:14:22;97772.66;;;24.13;46.52
14966;BME280;7577;45.226;5.798;2022-07-29T01:17:02;97771.58;;;24.05;47.14
14966;BME280;7577;45.226;5.798;2022-07-29T01:19:40;97768.56;;;23.71;47.12
14966;BME280;7577;45.226;5.798;2022-07-29T01:22:25;97766.48;;;23.48;47.63
14966;BME280;7577;45.226;5.798;2022-07-29T01:25:02;97768.11;;;23.52;47.60
14966;BME280;7577;45.226;5.798;2022-07-29T01:27:47;97771.13;;;23.70;47.19
14966;BME280;7577;45.226;5.798;2022-07-29T01:33:07;97771.68;;;23.66;48.02
14966;BME280;7577;45.226;5.798;2022-07-29T01:35:35;97772.62;;;23.64;47.84
14966;BME280;7577;45.226;5.798;2022-07-29T01:38:09;97772.90;;;23.68;48.00
14966;BME280;7577;45.226;5.798;2022-07-29T01:43:36;97780.08;;;23.56;48.51
14966;BME280;7577;45.226;5.798;2022-07-29T01:46:04;97782.25;;;23.27;48.26
14966;BME280;7577;45.226;5.798;2022-07-29T01:51:30;97769.59;;;23.17;48.86
14966;BME280;7577;45.226;5.798;2022-07-29T01:54:06;97776.41;;;23.19;48.94
14966;BME280;7577;45.226;5.798;2022-07-29T01:56:39;97773.23;;;23.21;48.76
14966;BME280;7577;45.226;5.798;2022-07-29T01:59:11;97768.98;;;23.43;48.51
14966;BME280;7577;45.226;5.798;2022-07-29T02:01:42;97767.54;;;23.53;47.37
14966;BME280;7577;45.226;5.798;2022-07-29T02:04:15;97767.87;;;23.48;46.99
14966;BME280;7577;45.226;5.798;2022-07-29T02:06:48;97765.13;;;23.51;47.76
14966;BME280;7577;45.226;5.798;2022-07-29T02:09:21;97768.15;;;23.26;48.34
14966;BME280;7577;45.226;5.798;2022-07-29T02:11:54;97768.13;;;23.13;48.73
14966;BME280;7577;45.226;5.798;2022-07-29T02:17:15;97768.52;;;23.25;49.23
14966;BME280;7577;45.226;5.798;2022-07-29T02:22:42;97778.34;;;23.06;49.67
14966;BME280;7577;45.226;5.798;2022-07-29T02:28:16;97775.36;;;23.05;49.84
14966;BME280;7577;45.226;5.798;2022-07-29T02:30:49;97775.68;;;23.00;49.85
14966;BME280;7577;45.226;5.798;2022-07-29T02:36:03;97770.60;;;23.31;49.34
14966;BME280;7577;45.226;5.798;2022-07-29T02:38:34;97774.98;;;23.06;49.43
14966;BME280;7577;45.226;5.798;2022-07-29T02:41:23;97767.52;;;23.10;49.31
14966;BME280;7577;45.226;5.798;2022-07-29T02:43:58;97770.08;;;23.22;49.06
14966;BME280;7577;45.226;5.798;2022-07-29T02:46:31;97774.02;;;22.95;49.58
14966;BME280;7577;45.226;5.798;2022-07-29T02:49:07;97780.95;;;23.08;49.32
14966;BME280;7577;45.226;5.798;2022-07-29T02:51:42;97776.91;;;23.02;49.50
14966;BME280;7577;45.226;5.798;2022-07-29T02:54:21;97775.93;;;23.04;49.63
14966;BME280;7577;45.226;5.798;2022-07-29T02:56:53;97777.77;;;23.06;49.55
14966;BME280;7577;45.226;5.798;2022-07-29T02:59:26;97777.00;;;23.09;49.16
14966;BME280;7577;45.226;5.798;2022-07-29T03:01:59;97779.24;;;23.13;49.03
14966;BME280;7577;45.226;5.798;2022-07-29T03:04:31;97775.73;;;23.16;49.07
14966;BME280;7577;45.226;5.798;2022-07-29T03:09:53;97769.36;;;23.16;48.68
14966;BME280;7577;45.226;5.798;2022-07-29T03:12:24;97767.27;;;23.09;48.34
14966;BME280;7577;45.226;5.798;2022-07-29T03:17:38;97779.61;;;22.99;49.41
14966;BME280;7577;45.226;5.798;2022-07-29T03:22:59;97783.84;;;22.54;51.09
14966;BME280;7577;45.226;5.798;2022-07-29T03:28:14;97789.48;;;22.38;51.48
14966;BME280;7577;45.226;5.798;2022-07-29T03:30:48;97796.80;;;22.46;51.16
14966;BME280;7577;45.226;5.798;2022-07-29T03:33:18;97798.37;;;22.57;50.85
14966;BME280;7577;45.226;5.798;2022-07-29T03:35:48;97800.58;;;22.38;51.49
14966;BME280;7577;45.226;5.798;2022-07-29T03:41:09;97796.38;;;22.15;51.77
14966;BME280;7577;45.226;5.798;2022-07-29T03:43:48;97798.11;;;22.33;51.15
14966;BME280;7577;45.226;5.798;2022-07-29T03:46:21;97797.00;;;22.47;50.85
14966;BME280;7577;45.226;5.798;2022-07-29T03:48:55;97810.03;;;22.66;50.28
14966;BME280;7577;45.226;5.798;2022-07-29T03:51:26;97815.55;;;22.53;51.13
14966;BME280;7577;45.226;5.798;2022-07-29T03:53:57;97826.73;;;22.28;51.61
14966;BME280;7577;45.226;5.798;2022-07-29T03:56:28;97831.86;;;22.16;52.13
14966;BME280;7577;45.226;5.798;2022-07-29T03:58:59;97831.20;;;22.13;52.46
14966;BME280;7577;45.226;5.798;2022-07-29T04:01:33;97834.34;;;22.21;52.19
14966;BME280;7577;45.226;5.798;2022-07-29T04:04:04;97838.56;;;22.24;52.18
14966;BME280;7577;45.226;5.798;2022-07-29T04:06:40;97835.00;;;22.14;52.10
14966;BME280;7577;45.226;5.798;2022-07-29T04:09:11;97832.39;;;22.44;51.32
14966;BME280;7577;45.226;5.798;2022-07-29T04:11:43;97832.59;;;22.64;50.18
14966;BME280;7577;45.226;5.798;2022-07-29T04:16:58;97843.49;;;22.63;51.25
14966;BME280;7577;45.226;5.798;2022-07-29T04:19:29;97840.92;;;22.64;51.49
14966;BME280;7577;45.226;5.798;2022-07-29T04:22:01;97834.44;;;22.79;51.00
14966;BME280;7577;45.226;5.798;2022-07-29T04:24:31;97849.28;;;22.36;52.16
14966;BME280;7577;45.226;5.798;2022-07-29T04:27:01;97850.16;;;22.30;52.29
14966;BME280;7577;45.226;5.798;2022-07-29T04:29:32;97853.33;;;22.19;52.25
14966;BME280;7577;45.226;5.798;2022-07-29T04:34:47;97856.28;;;22.39;52.25
14966;BME280;7577;45.226;5.798;2022-07-29T04:40:05;97859.37;;;22.76;52.06
14966;BME280;7577;45.226;5.798;2022-07-29T04:42:37;97862.70;;;22.85;51.78
14966;BME280;7577;45.226;5.798;2022-07-29T04:45:10;97858.84;;;23.02;51.93
14966;BME280;7577;45.226;5.798;2022-07-29T04:47:40;97863.08;;;23.19;51.24
14966;BME280;7577;45.226;5.798;2022-07-29T04:50:15;97859.64;;;23.25;50.78
14966;BME280;7577;45.226;5.798;2022-07-29T04:52:45;97856.21;;;23.35;50.22
14966;BME280;7577;45.226;5.798;2022-07-29T04:55:19;97852.94;;;23.56;50.00
14966;BME280;7577;45.226;5.798;2022-07-29T04:57:52;97853.05;;;23.63;50.71
14966;BME280;7577;45.226;5.798;2022-07-29T05:00:23;97859.27;;;23.53;50.44
14966;BME280;7577;45.226;5.798;2022-07-29T05:02:55;97860.80;;;23.76;50.76
14966;BME280;7577;45.226;5.798;2022-07-29T05:05:26;97867.63;;;23.82;50.53
14966;BME280;7577;45.226;5.798;2022-07-29T05:07:56;97862.06;;;23.95;50.18
14966;BME280;7577;45.226;5.798;2022-07-29T05:10:26;97871.19;;;24.09;50.27
14966;BME280;7577;45.226;5.798;2022-07-29T05:12:57;97872.69;;;24.19;49.77
14966;BME280;7577;45.226;5.798;2022-07-29T05:15:29;97877.53;;;24.26;48.97
14966;BME280;7577;45.226;5.798;2022-07-29T05:17:59;97884.38;;;24.32;49.89
14966;BME280;7577;45.226;5.798;2022-07-29T05:20:30;97885.58;;;24.31;49.42
14966;BME280;7577;45.226;5.798;2022-07-29T05:23:02;97883.58;;;24.15;49.64
14966;BME280;7577;45.226;5.798;2022-07-29T05:25:35;97881.30;;;24.24;48.75
14966;BME280;7577;45.226;5.798;2022-07-29T05:28:06;97884.59;;;24.33;48.15
14966;BME280;7577;45.226;5.798;2022-07-29T05:30:37;97877.72;;;24.40;48.62
14966;BME280;7577;45.226;5.798;2022-07-29T05:35:53;97867.20;;;24.59;47.02
14966;BME280;7577;45.226;5.798;2022-07-29T05:38:23;97867.78;;;24.59;47.81
14966;BME280;7577;45.226;5.798;2022-07-29T05:40:58;97873.55;;;24.76;47.24
14966;BME280;7577;45.226;5.798;2022-07-29T05:43:30;97881.14;;;24.99;47.89
14966;BME280;7577;45.226;5.798;2022-07-29T05:46:00;97889.07;;;24.97;47.77
14966;BME280;7577;45.226;5.798;2022-07-29T05:48:34;97896.41;;;24.72;48.01
14966;BME280;7577;45.226;5.798;2022-07-29T05:51:04;97901.45;;;24.80;48.43
14966;BME280;7577;45.226;5.798;2022-07-29T05:53:44;97894.87;;;25.42;47.49
14966;BME280;7577;45.226;5.798;2022-07-29T05:56:17;97896.91;;;26.54;44.60
14966;BME280;7577;45.226;5.798;2022-07-29T05:58:50;97901.88;;;27.44;42.99
14966;BME280;7577;45.226;5.798;2022-07-29T06:04:01;97915.80;;;27.16;43.41
14966;BME280;7577;45.226;5.798;2022-07-29T06:06:35;97918.95;;;26.87;43.61
14966;BME280;7577;45.226;5.798;2022-07-29T06:09:05;97913.98;;;25.97;44.99
14966;BME280;7577;45.226;5.798;2022-07-29T06:11:46;97915.46;;;25.81;45.36
14966;BME280;7577;45.226;5.798;2022-07-29T06:14:18;97915.51;;;25.34;47.28
14966;BME280;7577;45.226;5.798;2022-07-29T06:16:52;97917.11;;;24.95;48.08
14966;BME280;7577;45.226;5.798;2022-07-29T06:19:23;97915.50;;;24.74;48.88
14966;BME280;7577;45.226;5.798;2022-07-29T06:21:57;97915.30;;;24.73;49.21
14966;BME280;7577;45.226;5.798;2022-07-29T06:24:29;97926.20;;;24.68;48.46
14966;BME280;7577;45.226;5.798;2022-07-29T06:26:59;97923.62;;;24.89;48.91
14966;BME280;7577;45.226;5.798;2022-07-29T06:29:32;97921.55;;;24.99;47.73
14966;BME280;7577;45.226;5.798;2022-07-29T06:45:35;97901.47;;;27.81;41.61
14966;BME280;7577;45.226;5.798;2022-07-29T06:48:11;97902.81;;;28.95;38.11
14966;BME280;7577;45.226;5.798;2022-07-29T07:15:15;97933.22;;;29.04;34.70
14966;BME280;7577;45.226;5.798;2022-07-29T08:01:01;97953.59;;;25.63;43.54
14966;BME280;7577;45.226;5.798;2022-07-29T08:04:00;97966.36;;;25.67;43.44
14966;BME280;7577;45.226;5.798;2022-07-29T08:09:22;97947.66;;;25.44;44.50
14966;BME280;7577;45.226;5.798;2022-07-29T08:12:07;97947.00;;;25.61;45.07
14966;BME280;7577;45.226;5.798;2022-07-29T08:14:42;97947.28;;;25.46;45.98
14966;BME280;7577;45.226;5.798;2022-07-29T08:18:10;97951.27;;;25.45;46.24
14966;BME280;7577;45.226;5.798;2022-07-29T08:56:32;98133.41;;;26.12;47.05
14966;BME280;7577;45.226;5.798;2022-07-29T08:59:09;98157.27;;;25.70;53.67
14966;BME280;7577;45.226;5.798;2022-07-29T09:01:49;98159.02;;;25.02;59.20
14966;BME280;7577;45.226;5.798;2022-07-29T09:05:00;98170.06;;;24.08;63.68
14966;BME280;7577;45.226;5.798;2022-07-29T09:21:39;98229.61;;;20.83;92.07
14966;BME280;7577;45.226;5.798;2022-07-29T09:24:42;98228.09;;;20.86;95.93
14966;BME280;7577;45.226;5.798;2022-07-29T09:30:54;98239.92;;;21.56;88.57
14966;BME280;7577;45.226;5.798;2022-07-29T09:33:43;98242.86;;;21.69;89.66
14966;BME280;7577;45.226;5.798;2022-07-29T09:36:15;98238.48;;;21.95;85.82
14966;BME280;7577;45.226;5.798;2022-07-29T09:38:59;98241.75;;;21.91;87.55
14966;BME280;7577;45.226;5.798;2022-07-29T09:41:46;98246.01;;;22.10;89.12
14966;BME280;7577;45.226;5.798;2022-07-29T09:44:26;98244.06;;;21.62;96.41
14966;BME280;7577;45.226;5.798;2022-07-29T09:47:06;98243.59;;;21.66;97.24
14966;BME280;7577;45.226;5.798;2022-07-29T09:49:56;98247.11;;;22.00;95.64
14966;BME280;7577;45.226;5.798;2022-07-29T10:16:38;98255.27;;;22.46;92.58
14966;BME280;7577;45.226;5.798;2022-07-29T10:19:11;98258.37;;;22.44;92.91
14966;BME280;7577;45.226;5.798;2022-07-29T10:21:43;98261.06;;;22.41;88.69
14966;BME280;7577;45.226;5.798;2022-07-29T10:24:15;98258.89;;;22.40;87.53
14966;BME280;7577;45.226;5.798;2022-07-29T10:29:37;98247.05;;;22.43;91.20
14966;BME280;7577;45.226;5.798;2022-07-29T11:02:46;98266.52;;;22.22;93.55
14966;BME280;7577;45.226;5.798;2022-07-29T11:08:38;98261.80;;;22.00;97.75
14966;BME280;7577;45.226;5.798;2022-07-29T11:15:51;98263.15;;;22.22;96.30
14966;BME280;7577;45.226;5.798;2022-07-29T11:18:29;98275.11;;;21.95;100.00
14966;BME280;7577;45.226;5.798;2022-07-29T11:27:23;98260.51;;;22.19;96.14
14966;BME280;7577;45.226;5.798;2022-07-29T11:30:04;98265.30;;;22.44;91.42
14966;BME280;7577;45.226;5.798;2022-07-29T12:21:09;98207.67;;;22.69;98.90
14966;BME280;7577;45.226;5.798;2022-07-29T12:26:31;98202.37;;;22.64;94.67
14966;BME280;7577;45.226;5.798;2022-07-29T12:29:27;98213.13;;;23.09;95.26
14966;BME280;7577;45.226;5.798;2022-07-29T12:34:45;98220.05;;;23.25;93.57
14966;BME280;7577;45.226;5.798;2022-07-29T12:37:22;98224.92;;;23.12;92.03
14966;BME280;7577;45.226;5.798;2022-07-29T12:39:58;98230.97;;;23.33;92.83
14966;BME280;7577;45.226;5.798;2022-07-29T13:54:15;98146.84;;;23.46;80.27
14966;BME280;7577;45.226;5.798;2022-07-29T13:56:55;98148.63;;;23.35;79.33
14966;BME280;7577;45.226;5.798;2022-07-29T13:59:26;98149.34;;;23.22;78.43
14966;BME280;7577;45.226;5.798;2022-07-29T14:02:07;98140.22;;;23.22;78.63
14966;BME280;7577;45.226;5.798;2022-07-29T14:04:47;98141.58;;;23.50;80.19
14966;BME280;7577;45.226;5.798;2022-07-29T14:31:44;98099.63;;;24.04;75.54
14966;BME280;7577;45.226;5.798;2022-07-29T15:19:51;98052.75;;;24.58;67.81
14966;BME280;7577;45.226;5.798;2022-07-29T15:22:27;98047.36;;;24.68;67.68
14966;BME280;7577;45.226;5.798;2022-07-29T15:38:57;98039.66;;;25.08;64.65
14966;BME280;7577;45.226;5.798;2022-07-29T15:54:42;98036.98;;;25.35;62.27
14966;BME280;7577;45.226;5.798;2022-07-29T16:10:42;98024.14;;;25.43;59.78
14966;BME280;7577;45.226;5.798;2022-07-29T16:13:17;98027.77;;;25.47;58.90
14966;BME280;7577;45.226;5.798;2022-07-29T16:37:01;97999.70;;;25.50;56.10
14966;BME280;7577;45.226;5.798;2022-07-29T16:39:35;97995.52;;;25.50;56.87
14966;BME280;7577;45.226;5.798;2022-07-29T16:42:05;97997.70;;;25.50;56.62
14966;BME280;7577;45.226;5.798;2022-07-29T16:44:38;98000.48;;;25.50;57.18
14966;BME280;7577;45.226;5.798;2022-07-29T16:47:08;97997.88;;;25.48;57.09
14966;BME280;7577;45.226;5.798;2022-07-29T16:49:38;98000.11;;;25.52;57.16
14966;BME280;7577;45.226;5.798;2022-07-29T16:52:08;98002.67;;;25.47;57.59
14966;BME280;7577;45.226;5.798;2022-07-29T16:54:38;98004.56;;;25.60;56.79
14966;BME280;7577;45.226;5.798;2022-07-29T16:57:10;98002.41;;;25.63;55.37
14966;BME280;7577;45.226;5.798;2022-07-29T16:59:51;97995.70;;;25.71;55.44
14966;BME280;7577;45.226;5.798;2022-07-29T17:02:21;98000.63;;;25.64;55.61
14966;BME280;7577;45.226;5.798;2022-07-29T17:04:51;98007.17;;;25.62;55.50
14966;BME280;7577;45.226;5.798;2022-07-29T17:07:27;98005.86;;;25.49;54.33
14966;BME280;7577;45.226;5.798;2022-07-29T17:09:57;98004.42;;;25.42;55.06
14966;BME280;7577;45.226;5.798;2022-07-29T17:15:17;98013.39;;;25.45;54.63
14966;BME280;7577;45.226;5.798;2022-07-29T17:17:47;98017.06;;;25.33;55.47
14966;BME280;7577;45.226;5.798;2022-07-29T17:20:18;98016.72;;;25.05;54.69
14966;BME280;7577;45.226;5.798;2022-07-29T17:36:09;98024.04;;;25.16;54.94
14966;BME280;7577;45.226;5.798;2022-07-29T17:38:57;98030.83;;;25.02;54.61
14966;BME280;7577;45.226;5.798;2022-07-29T17:41:28;98025.75;;;25.11;54.72
14966;BME280;7577;45.226;5.798;2022-07-29T17:43:58;98030.25;;;25.03;53.86
14966;BME280;7577;45.226;5.798;2022-07-29T17:46:28;98031.84;;;25.04;54.08
14966;BME280;7577;45.226;5.798;2022-07-29T17:48:59;98035.39;;;24.84;53.85
14966;BME280;7577;45.226;5.798;2022-07-29T17:51:29;98034.34;;;24.79;54.65
14966;BME280;7577;45.226;5.798;2022-07-29T17:54:02;98035.06;;;24.73;54.76
14966;BME280;7577;45.226;5.798;2022-07-29T17:56:40;98035.77;;;24.66;54.64
14966;BME280;7577;45.226;5.798;2022-07-29T18:12:43;98047.92;;;24.55;56.33
14966;BME280;7577;45.226;5.798;2022-07-29T18:29:02;98067.00;;;24.53;58.11
14966;BME280;7577;45.226;5.798;2022-07-29T18:45:11;98070.27;;;24.19;58.88
14966;BME280;7577;45.226;5.798;2022-07-29T19:00:49;98087.66;;;24.13;58.85
14966;BME280;7577;45.226;5.798;2022-07-29T19:06:02;98091.25;;;24.13;59.81
14966;BME280;7577;45.226;5.798;2022-07-29T19:08:38;98085.44;;;24.09;58.84
14966;BME280;7577;45.226;5.798;2022-07-29T19:11:19;98088.27;;;24.12;58.34
14966;BME280;7577;45.226;5.798;2022-07-29T19:16:39;98099.12;;;24.21;58.72
14966;BME280;7577;45.226;5.798;2022-07-29T19:19:19;98099.34;;;24.09;59.15
14966;BME280;7577;45.226;5.798;2022-07-29T19:21:58;98098.73;;;24.09;59.34
14966;BME280;7577;45.226;5.798;2022-07-29T19:24:35;98100.63;;;24.15;60.17
14966;BME280;7577;45.226;5.798;2022-07-29T19:27:11;98103.66;;;24.19;61.48
14966;BME280;7577;45.226;5.798;2022-07-29T19:32:25;98107.59;;;24.28;61.89
14966;BME280;7577;45.226;5.798;2022-07-29T19:35:05;98110.95;;;24.27;62.57
14966;BME280;7577;45.226;5.798;2022-07-29T19:38:13;98115.33;;;24.28;62.84
14966;BME280;7577;45.226;5.798;2022-07-29T19:40:47;98118.22;;;24.09;65.54
14966;BME280;7577;45.226;5.798;2022-07-29T19:43:21;98120.95;;;24.06;61.52
14966;BME280;7577;45.226;5.798;2022-07-29T19:45:52;98120.14;;;24.05;62.90
14966;BME280;7577;45.226;5.798;2022-07-29T19:48:28;98128.95;;;23.98;62.80
14966;BME280;7577;45.226;5.798;2022-07-29T19:50:58;98130.28;;;23.85;65.67
14966;BME280;7577;45.226;5.798;2022-07-29T19:56:10;98129.88;;;24.05;65.83
14966;BME280;7577;45.226;5.798;2022-07-29T19:58:40;98136.22;;;23.83;65.02
14966;BME280;7577;45.226;5.798;2022-07-29T20:01:11;98140.56;;;23.90;64.39
14966;BME280;7577;45.226;5.798;2022-07-29T20:03:45;98137.19;;;23.81;64.72
14966;BME280;7577;45.226;5.798;2022-07-29T20:06:15;98142.91;;;23.79;64.47
14966;BME280;7577;45.226;5.798;2022-07-29T20:08:45;98152.51;;;23.62;64.80
14966;BME280;7577;45.226;5.798;2022-07-29T20:11:15;98150.55;;;23.63;63.42
14966;BME280;7577;45.226;5.798;2022-07-29T20:13:46;98147.40;;;23.64;62.46
14966;BME280;7577;45.226;5.798;2022-07-29T20:29:41;98164.39;;;23.50;64.24
14966;BME280;7577;45.226;5.798;2022-07-29T20:34:55;98165.06;;;23.53;64.44
14966;BME280;7577;45.226;5.798;2022-07-29T20:37:25;98170.77;;;23.41;64.77
14966;BME280;7577;45.226;5.798;2022-07-29T20:40:15;98165.88;;;23.34;65.21
14966;BME280;7577;45.226;5.798;2022-07-29T20:42:50;98173.13;;;23.39;65.14
14966;BME280;7577;45.226;5.798;2022-07-29T20:45:26;98177.72;;;23.31;65.76
14966;BME280;7577;45.226;5.798;2022-07-29T20:47:59;98175.02;;;23.25;66.23
14966;BME280;7577;45.226;5.798;2022-07-29T20:50:30;98173.63;;;23.25;66.26
14966;BME280;7577;45.226;5.798;2022-07-29T20:53:04;98175.59;;;23.25;66.49
14966;BME280;7577;45.226;5.798;2022-07-29T20:55:40;98166.17;;;23.29;69.27
14966;BME280;7577;45.226;5.798;2022-07-29T20:58:10;98169.16;;;23.30;68.15
14966;BME280;7577;45.226;5.798;2022-07-29T21:00:42;98164.05;;;23.23;68.54
14966;BME280;7577;45.226;5.798;2022-07-29T21:03:13;98165.08;;;23.24;69.68
14966;BME280;7577;45.226;5.798;2022-07-29T21:05:50;98150.83;;;23.26;69.57
14966;BME280;7577;45.226;5.798;2022-07-29T21:08:20;98154.80;;;23.19;68.64
14966;BME280;7577;45.226;5.798;2022-07-29T21:10:54;98153.86;;;23.11;67.95
14966;BME280;7577;45.226;5.798;2022-07-29T21:13:27;98150.04;;;23.00;68.04
14966;BME280;7577;45.226;5.798;2022-07-29T21:18:44;98148.14;;;22.85;68.94
14966;BME280;7577;45.226;5.798;2022-07-29T21:21:18;98151.92;;;22.77;69.15
14966;BME280;7577;45.226;5.798;2022-07-29T21:23:54;98147.77;;;22.77;70.81
14966;BME280;7577;45.226;5.798;2022-07-29T21:26:24;98153.91;;;22.86;71.28
14966;BME280;7577;45.226;5.798;2022-07-29T21:28:54;98151.78;;;22.80;72.43
14966;BME280;7577;45.226;5.798;2022-07-29T21:34:08;98146.85;;;22.64;73.89
14966;BME280;7577;45.226;5.798;2022-07-29T21:36:45;98159.41;;;22.58;74.69
14966;BME280;7577;45.226;5.798;2022-07-29T21:39:15;98159.52;;;22.46;74.87
14966;BME280;7577;45.226;5.798;2022-07-29T21:41:45;98150.55;;;22.37;75.73
14966;BME280;7577;45.226;5.798;2022-07-29T21:44:15;98163.59;;;22.27;71.74
14966;BME280;7577;45.226;5.798;2022-07-29T21:46:52;98167.95;;;22.34;73.70
14966;BME280;7577;45.226;5.798;2022-07-29T21:49:22;98166.42;;;22.36;72.66
14966;BME280;7577;45.226;5.798;2022-07-29T21:52:00;98169.77;;;22.36;70.90
14966;BME280;7577;45.226;5.798;2022-07-29T21:54:30;98168.31;;;22.48;70.37
14966;BME280;7577;45.226;5.798;2022-07-29T21:57:00;98167.95;;;22.49;70.76
14966;BME280;7577;45.226;5.798;2022-07-29T21:59:30;98169.23;;;22.46;70.78
14966;BME280;7577;45.226;5.798;2022-07-29T22:02:00;98163.33;;;22.47;70.98
14966;BME280;7577;45.226;5.798;2022-07-29T22:04:37;98172.11;;;22.49;71.25
14966;BME280;7577;45.226;5.798;2022-07-29T22:07:07;98178.59;;;22.47;71.41
14966;BME280;7577;45.226;5.798;2022-07-29T22:09:37;98171.52;;;22.50;71.34
14966;BME280;7577;45.226;5.798;2022-07-29T22:14:53;98185.85;;;22.52;74.29
14966;BME280;7577;45.226;5.798;2022-07-29T22:17:26;98190.38;;;22.44;74.70
14966;BME280;7577;45.226;5.798;2022-07-29T22:19:57;98189.51;;;22.40;74.81
14966;BME280;7577;45.226;5.798;2022-07-29T22:35:31;98208.89;;;22.31;72.73
14966;BME280;7577;45.226;5.798;2022-07-29T22:40:42;98219.09;;;22.27;73.25
14966;BME280;7577;45.226;5.798;2022-07-29T22:43:12;98224.86;;;22.28;72.66
14966;BME280;7577;45.226;5.798;2022-07-29T22:45:50;98222.78;;;22.24;73.37
14966;BME280;7577;45.226;5.798;2022-07-29T22:48:20;98224.72;;;22.30;72.73
14966;BME280;7577;45.226;5.798;2022-07-29T22:50:50;98225.62;;;22.34;72.61
14966;BME280;7577;45.226;5.798;2022-07-29T22:53:21;98236.93;;;22.35;72.60
14966;BME280;7577;45.226;5.798;2022-07-29T22:55:51;98240.85;;;22.40;73.45
14966;BME280;7577;45.226;5.798;2022-07-29T22:58:28;98239.55;;;22.28;75.68
14966;BME280;7577;45.226;5.798;2022-07-29T23:00:58;98239.13;;;22.20;76.50
14966;BME280;7577;45.226;5.798;2022-07-29T23:03:28;98244.62;;;22.26;77.00
14966;BME280;7577;45.226;5.798;2022-07-29T23:06:04;98250.18;;;22.26;76.26
14966;BME280;7577;45.226;5.798;2022-07-29T23:08:40;98248.84;;;22.20;76.89
14966;BME280;7577;45.226;5.798;2022-07-29T23:11:16;98247.11;;;22.22;76.87
14966;BME280;7577;45.226;5.798;2022-07-29T23:13:46;98243.78;;;22.16;75.51
14966;BME280;7577;45.226;5.798;2022-07-29T23:16:16;98242.88;;;22.12;75.41
14966;BME280;7577;45.226;5.798;2022-07-29T23:21:30;98244.05;;;22.11;75.17
14966;BME280;7577;45.226;5.798;2022-07-29T23:24:00;98245.79;;;22.09;75.17
14966;BME280;7577;45.226;5.798;2022-07-29T23:26:30;98245.24;;;22.04;76.35
14966;BME280;7577;45.226;5.798;2022-07-29T23:29:04;98244.89;;;22.05;75.80
14966;BME280;7577;45.226;5.798;2022-07-29T23:34:23;98238.48;;;21.95;75.87
14966;BME280;7577;45.226;5.798;2022-07-29T23:36:53;98242.91;;;21.90;75.96
14966;BME280;7577;45.226;5.798;2022-07-29T23:39:24;98238.59;;;21.77;76.67
14966;BME280;7577;45.226;5.798;2022-07-29T23:41:56;98231.92;;;21.72;77.21
14966;BME280;7577;45.226;5.798;2022-07-29T23:44:26;98231.66;;;21.77;77.25
14966;BME280;7577;45.226;5.798;2022-07-29T23:46:56;98231.31;;;21.79;76.91
14966;BME280;7577;45.226;5.798;2022-07-29T23:49:33;98229.20;;;21.82;76.94
14966;BME280;7577;45.226;5.798;2022-07-29T23:52:04;98226.20;;;21.81;76.81
14966;BME280;7577;45.226;5.798;2022-07-29T23:54:34;98223.70;;;21.76;77.04
14966;BME280;7577;45.226;5.798;2022-07-29T23:57:04;98224.20;;;21.60;77.81
